sensor_id;sensor_type;location;lat;lon;timestamp;temperature;humidity
55634;DHT22;41504;53.162;6.788;2023-07-02T00:02:05;16.40;79.40
55634;DHT22;41504;53.162;6.788;2023-07-02T00:04:31;16.40;79.50
55634;DHT22;41504;53.162;6.788;2023-07-02T00:06:57;16.40;79.10
55634;DHT22;41504;53.162;6.788;2023-07-02T00:09:22;16.30;79.20
55634;DHT22;41504;53.162;6.788;2023-07-02T00:11:48;16.30;78.90
55634;DHT22;41504;53.162;6.788;2023-07-02T00:14:14;16.30;78.70
55634;DHT22;41504;53.162;6.788;2023-07-02T00:16:44;16.30;78.30
55634;DHT22;41504;53.162;6.788;2023-07-02T00:19:13;16.30;78.40
55634;DHT22;41504;53.162;6.788;2023-07-02T00:21:39;16.30;78.30
55634;DHT22;41504;53.162;6.788;2023-07-02T00:24:09;16.30;78.30
55634;DHT22;41504;53.162;6.788;2023-07-02T00:26:36;16.20;78.30
55634;DHT22;41504;53.162;6.788;2023-07-02T00:29:08;16.30;78.50
55634;DHT22;41504;53.162;6.788;2023-07-02T00:31:35;16.20;78.50
55634;DHT22;41504;53.162;6.788;2023-07-02T00:34:01;16.20;78.30
55634;DHT22;41504;53.162;6.788;2023-07-02T00:36:28;16.20;78.40
55634;DHT22;41504;53.162;6.788;2023-07-02T00:38:57;16.20;78.60
55634;DHT22;41504;53.162;6.788;2023-07-02T00:41:23;16.10;78.70
55634;DHT22;41504;53.162;6.788;2023-07-02T00:43:49;16.10;78.40
55634;DHT22;41504;53.162;6.788;2023-07-02T00:46:17;16.10;78.30
55634;DHT22;41504;53.162;6.788;2023-07-02T00:48:47;16.00;78.40
55634;DHT22;41504;53.162;6.788;2023-07-02T00:51:15;16.00;78.70
55634;DHT22;41504;53.162;6.788;2023-07-02T00:53:43;16.00;78.80
55634;DHT22;41504;53.162;6.788;2023-07-02T00:56:09;15.90;78.60
55634;DHT22;41504;53.162;6.788;2023-07-02T01:01:41;15.90;78.50
55634;DHT22;41504;53.162;6.788;2023-07-02T01:04:13;15.90;78.70
55634;DHT22;41504;53.162;6.788;2023-07-02T01:06:39;15.90;78.60
55634;DHT22;41504;53.162;6.788;2023-07-02T01:09:10;15.80;78.80
55634;DHT22;41504;53.162;6.788;2023-07-02T01:11:57;15.80;78.70
55634;DHT22;41504;53.162;6.788;2023-07-02T01:14:40;15.80;79.00
55634;DHT22;41504;53.162;6.788;2023-07-02T01:17:13;15.80;78.30
55634;DHT22;41504;53.162;6.788;2023-07-02T01:19:43;15.70;78.50
55634;DHT22;41504;53.162;6.788;2023-07-02T01:22:10;15.70;78.80
55634;DHT22;41504;53.162;6.788;2023-07-02T01:24:39;15.70;78.80
55634;DHT22;41504;53.162;6.788;2023-07-02T01:27:05;15.70;78.70
55634;DHT22;41504;53.162;6.788;2023-07-02T01:29:38;15.70;78.80
55634;DHT22;41504;53.162;6.788;2023-07-02T01:32:05;15.70;78.80
55634;DHT22;41504;53.162;6.788;2023-07-02T01:34:31;15.70;78.80
55634;DHT22;41504;53.162;6.788;2023-07-02T01:36:57;15.60;78.90
55634;DHT22;41504;53.162;6.788;2023-07-02T01:39:23;15.60;79.00
55634;DHT22;41504;53.162;6.788;2023-07-02T01:41:53;15.60;79.10
55634;DHT22;41504;53.162;6.788;2023-07-02T01:44:20;15.60;79.10
55634;DHT22;41504;53.162;6.788;2023-07-02T01:46:47;15.50;79.20
55634;DHT22;41504;53.162;6.788;2023-07-02T01:49:16;15.50;79.40
55634;DHT22;41504;53.162;6.788;2023-07-02T01:51:48;15.50;79.40
55634;DHT22;41504;53.162;6.788;2023-07-02T01:54:21;15.50;79.50
55634;DHT22;41504;53.162;6.788;2023-07-02T01:56:47;15.40;79.60
55634;DHT22;41504;53.162;6.788;2023-07-02T01:59:14;15.40;79.80
55634;DHT22;41504;53.162;6.788;2023-07-02T02:01:40;15.40;79.90
55634;DHT22;41504;53.162;6.788;2023-07-02T02:04:10;15.40;80.10
55634;DHT22;41504;53.162;6.788;2023-07-02T02:06:37;15.40;80.10
55634;DHT22;41504;53.162;6.788;2023-07-02T02:09:04;15.30;80.20
55634;DHT22;41504;53.162;6.788;2023-07-02T02:11:30;15.30;80.40
55634;DHT22;41504;53.162;6.788;2023-07-02T02:13:57;15.30;80.50
55634;DHT22;41504;53.162;6.788;2023-07-02T02:16:23;15.20;80.40
55634;DHT22;41504;53.162;6.788;2023-07-02T02:18:49;15.20;80.70
55634;DHT22;41504;53.162;6.788;2023-07-02T02:21:19;15.20;80.70
55634;DHT22;41504;53.162;6.788;2023-07-02T02:23:45;15.20;80.80
55634;DHT22;41504;53.162;6.788;2023-07-02T02:26:10;15.20;80.90
55634;DHT22;41504;53.162;6.788;2023-07-02T02:28:42;15.20;81.00
55634;DHT22;41504;53.162;6.788;2023-07-02T02:31:11;15.20;81.00
55634;DHT22;41504;53.162;6.788;2023-07-02T02:33:37;15.10;81.20
55634;DHT22;41504;53.162;6.788;2023-07-02T02:36:04;15.10;81.80
55634;DHT22;41504;53.162;6.788;2023-07-02T02:38:29;15.10;81.40
55634;DHT22;41504;53.162;6.788;2023-07-02T02:40:55;15.10;81.40
55634;DHT22;41504;53.162;6.788;2023-07-02T02:43:21;15.10;81.50
55634;DHT22;41504;53.162;6.788;2023-07-02T02:45:48;15.00;81.50
55634;DHT22;41504;53.162;6.788;2023-07-02T02:48:13;15.00;81.60
55634;DHT22;41504;53.162;6.788;2023-07-02T02:50:39;15.00;81.70
55634;DHT22;41504;53.162;6.788;2023-07-02T02:53:09;14.90;81.80
55634;DHT22;41504;53.162;6.788;2023-07-02T02:55:39;14.90;81.80
55634;DHT22;41504;53.162;6.788;2023-07-02T02:58:04;15.00;82.00
55634;DHT22;41504;53.162;6.788;2023-07-02T03:00:30;14.90;82.00
55634;DHT22;41504;53.162;6.788;2023-07-02T03:02:56;14.90;82.10
55634;DHT22;41504;53.162;6.788;2023-07-02T03:05:42;14.90;82.20
55634;DHT22;41504;53.162;6.788;2023-07-02T03:08:09;14.90;82.20
55634;DHT22;41504;53.162;6.788;2023-07-02T03:10:35;14.80;82.30
55634;DHT22;41504;53.162;6.788;2023-07-02T03:13:01;14.70;82.30
55634;DHT22;41504;53.162;6.788;2023-07-02T03:15:27;14.70;82.40
55634;DHT22;41504;53.162;6.788;2023-07-02T03:17:54;14.70;82.40
55634;DHT22;41504;53.162;6.788;2023-07-02T03:20:20;14.70;82.50
55634;DHT22;41504;53.162;6.788;2023-07-02T03:22:45;14.70;82.50
55634;DHT22;41504;53.162;6.788;2023-07-02T03:25:11;14.70;82.50
55634;DHT22;41504;53.162;6.788;2023-07-02T03:27:37;14.80;82.60
55634;DHT22;41504;53.162;6.788;2023-07-02T03:30:03;14.70;83.10
55634;DHT22;41504;53.162;6.788;2023-07-02T03:32:29;14.70;82.80
55634;DHT22;41504;53.162;6.788;2023-07-02T03:34:55;14.70;82.90
55634;DHT22;41504;53.162;6.788;2023-07-02T03:37:22;14.70;83.00
55634;DHT22;41504;53.162;6.788;2023-07-02T03:39:48;14.70;83.00
55634;DHT22;41504;53.162;6.788;2023-07-02T03:42:14;14.70;83.10
55634;DHT22;41504;53.162;6.788;2023-07-02T03:44:39;14.70;83.20
55634;DHT22;41504;53.162;6.788;2023-07-02T03:47:08;14.70;83.40
55634;DHT22;41504;53.162;6.788;2023-07-02T03:49:37;14.70;83.60
55634;DHT22;41504;53.162;6.788;2023-07-02T03:52:03;14.70;83.50
55634;DHT22;41504;53.162;6.788;2023-07-02T03:54:30;14.70;83.60
55634;DHT22;41504;53.162;6.788;2023-07-02T03:56:56;14.70;83.60
55634;DHT22;41504;53.162;6.788;2023-07-02T03:59:22;14.70;83.60
55634;DHT22;41504;53.162;6.788;2023-07-02T04:01:48;14.70;83.50
55634;DHT22;41504;53.162;6.788;2023-07-02T04:04:13;14.70;83.50
55634;DHT22;41504;53.162;6.788;2023-07-02T04:06:39;14.80;83.50
55634;DHT22;41504;53.162;6.788;2023-07-02T04:09:05;14.90;83.50
55634;DHT22;41504;53.162;6.788;2023-07-02T04:11:31;14.80;83.30
55634;DHT22;41504;53.162;6.788;2023-07-02T04:13:56;14.90;83.40
55634;DHT22;41504;53.162;6.788;2023-07-02T04:16:22;14.90;83.30
55634;DHT22;41504;53.162;6.788;2023-07-02T04:18:48;15.00;83.30
55634;DHT22;41504;53.162;6.788;2023-07-02T04:21:13;15.00;83.30
55634;DHT22;41504;53.162;6.788;2023-07-02T04:23:39;15.00;83.40
55634;DHT22;41504;53.162;6.788;2023-07-02T04:26:05;15.00;83.30
55634;DHT22;41504;53.162;6.788;2023-07-02T04:28:34;15.10;83.30
55634;DHT22;41504;53.162;6.788;2023-07-02T04:31:00;15.10;83.20
55634;DHT22;41504;53.162;6.788;2023-07-02T04:33:25;15.20;83.20
55634;DHT22;41504;53.162;6.788;2023-07-02T04:35:51;15.10;83.10
55634;DHT22;41504;53.162;6.788;2023-07-02T04:38:17;15.10;83.20
55634;DHT22;41504;53.162;6.788;2023-07-02T04:40:42;15.20;83.30
55634;DHT22;41504;53.162;6.788;2023-07-02T04:43:10;15.20;83.10
55634;DHT22;41504;53.162;6.788;2023-07-02T04:45:39;15.20;83.00
55634;DHT22;41504;53.162;6.788;2023-07-02T04:48:09;15.30;83.00
55634;DHT22;41504;53.162;6.788;2023-07-02T04:50:35;15.30;83.30
55634;DHT22;41504;53.162;6.788;2023-07-02T04:53:04;15.30;83.50
55634;DHT22;41504;53.162;6.788;2023-07-02T04:55:31;15.20;83.70
55634;DHT22;41504;53.162;6.788;2023-07-02T04:57:57;15.20;83.70
55634;DHT22;41504;53.162;6.788;2023-07-02T05:00:25;15.20;84.10
55634;DHT22;41504;53.162;6.788;2023-07-02T05:02:52;15.20;84.20
55634;DHT22;41504;53.162;6.788;2023-07-02T05:05:18;15.10;84.30
55634;DHT22;41504;53.162;6.788;2023-07-02T05:07:44;15.10;84.40
55634;DHT22;41504;53.162;6.788;2023-07-02T05:10:10;15.20;84.40
55634;DHT22;41504;53.162;6.788;2023-07-02T05:12:38;15.20;84.30
55634;DHT22;41504;53.162;6.788;2023-07-02T05:15:05;15.30;84.10
55634;DHT22;41504;53.162;6.788;2023-07-02T05:17:31;15.40;84.00
55634;DHT22;41504;53.162;6.788;2023-07-02T05:20:00;15.40;83.80
55634;DHT22;41504;53.162;6.788;2023-07-02T05:22:26;15.50;83.50
55634;DHT22;41504;53.162;6.788;2023-07-02T05:24:52;15.60;83.30
55634;DHT22;41504;53.162;6.788;2023-07-02T05:27:18;15.70;83.00
55634;DHT22;41504;53.162;6.788;2023-07-02T05:29:47;15.80;82.10
55634;DHT22;41504;53.162;6.788;2023-07-02T05:32:12;15.90;81.60
55634;DHT22;41504;53.162;6.788;2023-07-02T05:34:38;16.00;80.20
55634;DHT22;41504;53.162;6.788;2023-07-02T05:37:07;16.10;80.00
55634;DHT22;41504;53.162;6.788;2023-07-02T05:39:34;16.10;79.60
55634;DHT22;41504;53.162;6.788;2023-07-02T05:41:59;16.00;79.30
55634;DHT22;41504;53.162;6.788;2023-07-02T05:44:25;16.00;79.10
55634;DHT22;41504;53.162;6.788;2023-07-02T05:46:51;16.00;78.90
55634;DHT22;41504;53.162;6.788;2023-07-02T05:49:26;15.90;79.00
55634;DHT22;41504;53.162;6.788;2023-07-02T05:51:52;15.90;78.80
55634;DHT22;41504;53.162;6.788;2023-07-02T05:54:18;15.90;78.50
55634;DHT22;41504;53.162;6.788;2023-07-02T05:56:44;15.90;78.00
55634;DHT22;41504;53.162;6.788;2023-07-02T05:59:09;16.00;77.90
55634;DHT22;41504;53.162;6.788;2023-07-02T06:01:39;16.10;77.60
55634;DHT22;41504;53.162;6.788;2023-07-02T06:04:05;16.20;76.80
55634;DHT22;41504;53.162;6.788;2023-07-02T06:06:33;16.40;76.00
55634;DHT22;41504;53.162;6.788;2023-07-02T06:08:59;16.50;76.30
55634;DHT22;41504;53.162;6.788;2023-07-02T06:11:25;16.50;75.80
55634;DHT22;41504;53.162;6.788;2023-07-02T06:13:50;16.50;75.60
55634;DHT22;41504;53.162;6.788;2023-07-02T06:16:16;16.40;75.60
55634;DHT22;41504;53.162;6.788;2023-07-02T06:18:43;16.40;75.70
55634;DHT22;41504;53.162;6.788;2023-07-02T06:21:09;16.50;76.00
55634;DHT22;41504;53.162;6.788;2023-07-02T06:23:44;16.40;75.20
55634;DHT22;41504;53.162;6.788;2023-07-02T06:26:10;16.40;75.10
55634;DHT22;41504;53.162;6.788;2023-07-02T06:28:39;16.40;75.00
55634;DHT22;41504;53.162;6.788;2023-07-02T06:31:05;16.40;75.40
55634;DHT22;41504;53.162;6.788;2023-07-02T06:33:30;16.40;75.40
55634;DHT22;41504;53.162;6.788;2023-07-02T06:35:56;16.40;75.60
55634;DHT22;41504;53.162;6.788;2023-07-02T06:38:22;16.50;75.70
55634;DHT22;41504;53.162;6.788;2023-07-02T06:40:51;16.60;75.50
55634;DHT22;41504;53.162;6.788;2023-07-02T06:43:16;16.70;75.00
55634;DHT22;41504;53.162;6.788;2023-07-02T06:45:42;16.70;74.70
55634;DHT22;41504;53.162;6.788;2023-07-02T06:48:08;16.80;74.70
55634;DHT22;41504;53.162;6.788;2023-07-02T06:50:33;16.90;73.80
55634;DHT22;41504;53.162;6.788;2023-07-02T06:52:59;17.00;73.60
55634;DHT22;41504;53.162;6.788;2023-07-02T06:55:25;17.00;74.10
55634;DHT22;41504;53.162;6.788;2023-07-02T06:57:50;17.10;73.60
55634;DHT22;41504;53.162;6.788;2023-07-02T07:00:16;17.20;73.20
55634;DHT22;41504;53.162;6.788;2023-07-02T07:02:42;17.20;72.80
55634;DHT22;41504;53.162;6.788;2023-07-02T07:05:08;17.20;73.60
55634;DHT22;41504;53.162;6.788;2023-07-02T07:07:35;17.30;72.10
55634;DHT22;41504;53.162;6.788;2023-07-02T07:10:00;17.30;71.90
55634;DHT22;41504;53.162;6.788;2023-07-02T07:12:30;17.50;70.70
55634;DHT22;41504;53.162;6.788;2023-07-02T07:14:56;17.50;70.00
55634;DHT22;41504;53.162;6.788;2023-07-02T07:17:21;17.50;69.50
55634;DHT22;41504;53.162;6.788;2023-07-02T07:19:47;17.50;68.70
55634;DHT22;41504;53.162;6.788;2023-07-02T07:22:13;17.50;68.20
55634;DHT22;41504;53.162;6.788;2023-07-02T07:24:41;17.50;66.40
55634;DHT22;41504;53.162;6.788;2023-07-02T07:27:07;17.50;65.40
55634;DHT22;41504;53.162;6.788;2023-07-02T07:29:33;17.50;65.10
55634;DHT22;41504;53.162;6.788;2023-07-02T07:32:04;17.50;65.00
55634;DHT22;41504;53.162;6.788;2023-07-02T07:34:50;17.50;64.70
55634;DHT22;41504;53.162;6.788;2023-07-02T07:37:16;17.40;65.70
55634;DHT22;41504;53.162;6.788;2023-07-02T07:39:42;17.30;66.60
55634;DHT22;41504;53.162;6.788;2023-07-02T07:42:07;17.30;67.10
55634;DHT22;41504;53.162;6.788;2023-07-02T07:44:33;17.40;67.20
55634;DHT22;41504;53.162;6.788;2023-07-02T07:46:59;17.50;65.20
55634;DHT22;41504;53.162;6.788;2023-07-02T07:49:25;17.50;65.40
55634;DHT22;41504;53.162;6.788;2023-07-02T07:51:51;17.60;65.60
55634;DHT22;41504;53.162;6.788;2023-07-02T07:54:17;17.70;65.10
55634;DHT22;41504;53.162;6.788;2023-07-02T07:56:43;17.70;65.60
55634;DHT22;41504;53.162;6.788;2023-07-02T07:59:09;17.60;64.90
55634;DHT22;41504;53.162;6.788;2023-07-02T08:01:39;17.60;65.40
55634;DHT22;41504;53.162;6.788;2023-07-02T08:04:05;17.60;64.30
55634;DHT22;41504;53.162;6.788;2023-07-02T08:06:31;17.70;63.90
55634;DHT22;41504;53.162;6.788;2023-07-02T08:08:57;17.80;63.10
55634;DHT22;41504;53.162;6.788;2023-07-02T08:11:23;17.80;63.40
55634;DHT22;41504;53.162;6.788;2023-07-02T08:13:48;17.90;63.80
55634;DHT22;41504;53.162;6.788;2023-07-02T08:16:14;18.00;63.30
55634;DHT22;41504;53.162;6.788;2023-07-02T08:18:40;18.10;62.30
55634;DHT22;41504;53.162;6.788;2023-07-02T08:21:09;18.10;60.70
55634;DHT22;41504;53.162;6.788;2023-07-02T08:23:34;18.20;60.80
55634;DHT22;41504;53.162;6.788;2023-07-02T08:26:00;18.20;60.80
55634;DHT22;41504;53.162;6.788;2023-07-02T08:28:27;18.30;61.00
55634;DHT22;41504;53.162;6.788;2023-07-02T08:30:52;18.20;60.70
55634;DHT22;41504;53.162;6.788;2023-07-02T08:33:18;18.20;59.50
55634;DHT22;41504;53.162;6.788;2023-07-02T08:35:44;18.00;60.10
55634;DHT22;41504;53.162;6.788;2023-07-02T08:38:09;17.90;60.80
55634;DHT22;41504;53.162;6.788;2023-07-02T08:40:35;17.80;61.00
55634;DHT22;41504;53.162;6.788;2023-07-02T08:43:01;17.70;61.40
55634;DHT22;41504;53.162;6.788;2023-07-02T08:45:27;17.70;61.50
55634;DHT22;41504;53.162;6.788;2023-07-02T08:47:53;17.70;62.30
55634;DHT22;41504;53.162;6.788;2023-07-02T08:50:23;17.70;62.90
55634;DHT22;41504;53.162;6.788;2023-07-02T08:52:54;17.90;62.40
55634;DHT22;41504;53.162;6.788;2023-07-02T08:55:20;17.80;62.90
55634;DHT22;41504;53.162;6.788;2023-07-02T08:57:56;17.80;62.70
55634;DHT22;41504;53.162;6.788;2023-07-02T09:00:28;17.70;63.10
55634;DHT22;41504;53.162;6.788;2023-07-02T09:03:13;17.60;63.80
55634;DHT22;41504;53.162;6.788;2023-07-02T09:05:50;17.60;64.30
55634;DHT22;41504;53.162;6.788;2023-07-02T09:08:29;17.50;64.40
55634;DHT22;41504;53.162;6.788;2023-07-02T09:11:15;17.40;65.10
55634;DHT22;41504;53.162;6.788;2023-07-02T09:13:51;17.40;65.70
55634;DHT22;41504;53.162;6.788;2023-07-02T09:16:22;17.40;66.00
55634;DHT22;41504;53.162;6.788;2023-07-02T09:19:09;17.30;66.50
55634;DHT22;41504;53.162;6.788;2023-07-02T09:21:42;17.40;66.60
55634;DHT22;41504;53.162;6.788;2023-07-02T09:24:19;17.40;66.70
55634;DHT22;41504;53.162;6.788;2023-07-02T09:26:49;17.60;66.70
55634;DHT22;41504;53.162;6.788;2023-07-02T09:29:23;17.70;67.40
55634;DHT22;41504;53.162;6.788;2023-07-02T09:31:50;17.90;66.70
55634;DHT22;41504;53.162;6.788;2023-07-02T09:34:16;18.00;65.20
55634;DHT22;41504;53.162;6.788;2023-07-02T09:36:43;18.10;64.90
55634;DHT22;41504;53.162;6.788;2023-07-02T09:39:13;18.20;64.70
55634;DHT22;41504;53.162;6.788;2023-07-02T09:41:42;18.10;64.00
55634;DHT22;41504;53.162;6.788;2023-07-02T09:44:10;18.10;64.80
55634;DHT22;41504;53.162;6.788;2023-07-02T09:46:38;18.10;64.30
55634;DHT22;41504;53.162;6.788;2023-07-02T09:49:13;18.20;64.60
55634;DHT22;41504;53.162;6.788;2023-07-02T09:51:41;18.40;63.70
55634;DHT22;41504;53.162;6.788;2023-07-02T09:54:07;18.50;61.10
55634;DHT22;41504;53.162;6.788;2023-07-02T09:56:33;18.50;61.40
55634;DHT22;41504;53.162;6.788;2023-07-02T09:58:59;18.60;60.40
55634;DHT22;41504;53.162;6.788;2023-07-02T10:01:25;18.70;59.60
55634;DHT22;41504;53.162;6.788;2023-07-02T10:03:50;18.90;59.90
55634;DHT22;41504;53.162;6.788;2023-07-02T10:06:16;19.00;59.30
55634;DHT22;41504;53.162;6.788;2023-07-02T10:08:55;19.00;59.40
55634;DHT22;41504;53.162;6.788;2023-07-02T10:11:33;19.00;57.70
55634;DHT22;41504;53.162;6.788;2023-07-02T10:14:00;18.90;59.10
55634;DHT22;41504;53.162;6.788;2023-07-02T10:16:26;18.70;59.80
55634;DHT22;41504;53.162;6.788;2023-07-02T10:18:55;18.70;60.00
55634;DHT22;41504;53.162;6.788;2023-07-02T10:21:32;18.70;59.70
55634;DHT22;41504;53.162;6.788;2023-07-02T10:24:11;18.70;60.70
55634;DHT22;41504;53.162;6.788;2023-07-02T10:26:37;18.60;61.00
55634;DHT22;41504;53.162;6.788;2023-07-02T10:29:03;18.60;60.90
55634;DHT22;41504;53.162;6.788;2023-07-02T10:31:29;18.60;61.10
55634;DHT22;41504;53.162;6.788;2023-07-02T10:33:55;18.60;61.70
55634;DHT22;41504;53.162;6.788;2023-07-02T10:36:22;18.70;61.60
55634;DHT22;41504;53.162;6.788;2023-07-02T10:38:49;18.90;61.10
55634;DHT22;41504;53.162;6.788;2023-07-02T10:41:44;18.90;60.40
55634;DHT22;41504;53.162;6.788;2023-07-02T10:44:10;18.90;61.60
55634;DHT22;41504;53.162;6.788;2023-07-02T10:46:46;19.10;60.40
55634;DHT22;41504;53.162;6.788;2023-07-02T10:49:12;19.20;58.90
55634;DHT22;41504;53.162;6.788;2023-07-02T10:51:41;19.10;57.80
55634;DHT22;41504;53.162;6.788;2023-07-02T10:54:09;19.10;56.80
55634;DHT22;41504;53.162;6.788;2023-07-02T10:56:35;19.00;56.90
55634;DHT22;41504;53.162;6.788;2023-07-02T10:59:01;18.90;57.30
55634;DHT22;41504;53.162;6.788;2023-07-02T11:01:29;18.90;58.00
55634;DHT22;41504;53.162;6.788;2023-07-02T11:03:58;18.90;58.40
55634;DHT22;41504;53.162;6.788;2023-07-02T11:06:26;18.90;58.60
55634;DHT22;41504;53.162;6.788;2023-07-02T11:08:52;19.00;58.50
55634;DHT22;41504;53.162;6.788;2023-07-02T11:11:17;19.30;57.40
55634;DHT22;41504;53.162;6.788;2023-07-02T11:13:45;19.50;57.10
55634;DHT22;41504;53.162;6.788;2023-07-02T11:16:25;19.70;55.10
55634;DHT22;41504;53.162;6.788;2023-07-02T11:19:08;19.70;55.80
55634;DHT22;41504;53.162;6.788;2023-07-02T11:21:35;19.70;55.30
55634;DHT22;41504;53.162;6.788;2023-07-02T11:24:07;19.60;54.20
55634;DHT22;41504;53.162;6.788;2023-07-02T11:26:37;19.50;55.20
55634;DHT22;41504;53.162;6.788;2023-07-02T11:29:03;19.60;56.00
55634;DHT22;41504;53.162;6.788;2023-07-02T11:31:28;19.60;56.30
55634;DHT22;41504;53.162;6.788;2023-07-02T11:33:54;19.80;53.90
55634;DHT22;41504;53.162;6.788;2023-07-02T11:36:22;19.60;54.10
55634;DHT22;41504;53.162;6.788;2023-07-02T11:38:51;19.60;54.80
55634;DHT22;41504;53.162;6.788;2023-07-02T11:41:18;19.50;55.90
55634;DHT22;41504;53.162;6.788;2023-07-02T11:43:44;19.60;55.50
55634;DHT22;41504;53.162;6.788;2023-07-02T11:46:10;19.70;55.60
55634;DHT22;41504;53.162;6.788;2023-07-02T11:48:35;19.70;56.20
55634;DHT22;41504;53.162;6.788;2023-07-02T11:51:04;19.60;56.50
55634;DHT22;41504;53.162;6.788;2023-07-02T11:53:30;19.40;57.20
55634;DHT22;41504;53.162;6.788;2023-07-02T11:55:55;19.20;57.50
55634;DHT22;41504;53.162;6.788;2023-07-02T11:58:21;19.10;58.00
55634;DHT22;41504;53.162;6.788;2023-07-02T12:00:47;19.00;57.50
55634;DHT22;41504;53.162;6.788;2023-07-02T12:03:12;19.00;57.00
55634;DHT22;41504;53.162;6.788;2023-07-02T12:05:38;19.00;56.60
55634;DHT22;41504;53.162;6.788;2023-07-02T12:08:04;19.00;56.10
55634;DHT22;41504;53.162;6.788;2023-07-02T12:10:30;19.20;56.80
55634;DHT22;41504;53.162;6.788;2023-07-02T12:12:55;19.40;56.80
55634;DHT22;41504;53.162;6.788;2023-07-02T12:15:21;19.80;55.20
55634;DHT22;41504;53.162;6.788;2023-07-02T12:17:47;20.10;53.30
55634;DHT22;41504;53.162;6.788;2023-07-02T12:20:13;20.10;52.50
55634;DHT22;41504;53.162;6.788;2023-07-02T12:22:38;20.10;52.60
55634;DHT22;41504;53.162;6.788;2023-07-02T12:25:05;20.00;52.80
55634;DHT22;41504;53.162;6.788;2023-07-02T12:27:38;20.10;52.10
55634;DHT22;41504;53.162;6.788;2023-07-02T12:30:04;20.10;52.40
55634;DHT22;41504;53.162;6.788;2023-07-02T12:32:30;20.20;52.00
55634;DHT22;41504;53.162;6.788;2023-07-02T12:34:56;20.20;51.90
55634;DHT22;41504;53.162;6.788;2023-07-02T12:37:25;20.30;52.00
55634;DHT22;41504;53.162;6.788;2023-07-02T12:39:50;20.20;51.60
55634;DHT22;41504;53.162;6.788;2023-07-02T12:42:16;20.10;51.80
55634;DHT22;41504;53.162;6.788;2023-07-02T12:44:42;20.00;52.50
55634;DHT22;41504;53.162;6.788;2023-07-02T12:47:08;19.90;53.00
55634;DHT22;41504;53.162;6.788;2023-07-02T12:49:34;19.80;53.50
55634;DHT22;41504;53.162;6.788;2023-07-02T12:52:05;19.70;54.00
55634;DHT22;41504;53.162;6.788;2023-07-02T12:54:34;19.60;53.40
55634;DHT22;41504;53.162;6.788;2023-07-02T12:57:00;19.40;54.20
55634;DHT22;41504;53.162;6.788;2023-07-02T12:59:25;19.40;53.20
55634;DHT22;41504;53.162;6.788;2023-07-02T13:01:51;19.30;53.30
55634;DHT22;41504;53.162;6.788;2023-07-02T13:04:17;19.20;54.00
55634;DHT22;41504;53.162;6.788;2023-07-02T13:06:42;19.20;54.20
55634;DHT22;41504;53.162;6.788;2023-07-02T13:09:10;19.40;54.00
55634;DHT22;41504;53.162;6.788;2023-07-02T13:11:35;19.40;54.00
55634;DHT22;41504;53.162;6.788;2023-07-02T13:14:03;19.40;53.90
55634;DHT22;41504;53.162;6.788;2023-07-02T13:16:29;19.30;54.40
55634;DHT22;41504;53.162;6.788;2023-07-02T13:18:56;19.20;55.20
55634;DHT22;41504;53.162;6.788;2023-07-02T13:21:22;19.10;56.00
55634;DHT22;41504;53.162;6.788;2023-07-02T13:23:48;19.10;56.50
55634;DHT22;41504;53.162;6.788;2023-07-02T13:26:14;19.20;56.40
55634;DHT22;41504;53.162;6.788;2023-07-02T13:28:39;19.20;56.30
55634;DHT22;41504;53.162;6.788;2023-07-02T13:31:08;19.10;56.70
55634;DHT22;41504;53.162;6.788;2023-07-02T13:33:39;19.00;56.90
55634;DHT22;41504;53.162;6.788;2023-07-02T13:36:05;19.00;57.30
55634;DHT22;41504;53.162;6.788;2023-07-02T13:38:31;19.00;55.80
55634;DHT22;41504;53.162;6.788;2023-07-02T13:40:57;18.90;55.30
55634;DHT22;41504;53.162;6.788;2023-07-02T13:43:23;19.00;54.10
55634;DHT22;41504;53.162;6.788;2023-07-02T13:45:49;19.10;53.40
55634;DHT22;41504;53.162;6.788;2023-07-02T13:48:14;19.10;54.20
55634;DHT22;41504;53.162;6.788;2023-07-02T13:50:40;19.20;54.00
55634;DHT22;41504;53.162;6.788;2023-07-02T13:53:09;19.30;54.10
55634;DHT22;41504;53.162;6.788;2023-07-02T13:55:34;19.40;53.40
55634;DHT22;41504;53.162;6.788;2023-07-02T13:58:00;19.40;53.00
55634;DHT22;41504;53.162;6.788;2023-07-02T14:00:29;19.30;53.30
55634;DHT22;41504;53.162;6.788;2023-07-02T14:02:56;19.20;53.90
55634;DHT22;41504;53.162;6.788;2023-07-02T14:05:22;19.10;54.20
55634;DHT22;41504;53.162;6.788;2023-07-02T14:07:48;19.00;54.50
55634;DHT22;41504;53.162;6.788;2023-07-02T14:10:14;18.90;55.30
55634;DHT22;41504;53.162;6.788;2023-07-02T14:12:41;18.80;56.10
55634;DHT22;41504;53.162;6.788;2023-07-02T14:15:08;18.80;56.30
55634;DHT22;41504;53.162;6.788;2023-07-02T14:17:35;18.70;57.00
55634;DHT22;41504;53.162;6.788;2023-07-02T14:20:01;18.70;57.70
55634;DHT22;41504;53.162;6.788;2023-07-02T14:22:28;18.60;58.10
55634;DHT22;41504;53.162;6.788;2023-07-02T14:24:53;18.60;58.30
55634;DHT22;41504;53.162;6.788;2023-07-02T14:27:19;18.60;57.70
55634;DHT22;41504;53.162;6.788;2023-07-02T14:29:45;18.50;57.10
55634;DHT22;41504;53.162;6.788;2023-07-02T14:32:13;18.50;57.20
55634;DHT22;41504;53.162;6.788;2023-07-02T14:34:39;18.40;59.10
55634;DHT22;41504;53.162;6.788;2023-07-02T14:37:08;18.20;59.80
55634;DHT22;41504;53.162;6.788;2023-07-02T14:39:34;18.10;60.40
55634;DHT22;41504;53.162;6.788;2023-07-02T14:41:59;18.00;61.10
55634;DHT22;41504;53.162;6.788;2023-07-02T14:44:25;17.90;61.20
55634;DHT22;41504;53.162;6.788;2023-07-02T14:46:51;17.90;61.50
55634;DHT22;41504;53.162;6.788;2023-07-02T14:49:17;18.00;61.00
55634;DHT22;41504;53.162;6.788;2023-07-02T14:51:43;18.10;60.50
55634;DHT22;41504;53.162;6.788;2023-07-02T14:54:09;18.20;60.30
55634;DHT22;41504;53.162;6.788;2023-07-02T14:56:35;18.20;59.90
55634;DHT22;41504;53.162;6.788;2023-07-02T14:59:04;18.20;59.60
55634;DHT22;41504;53.162;6.788;2023-07-02T15:01:32;18.20;59.00
55634;DHT22;41504;53.162;6.788;2023-07-02T15:03:58;18.30;59.40
55634;DHT22;41504;53.162;6.788;2023-07-02T15:06:25;18.60;58.90
55634;DHT22;41504;53.162;6.788;2023-07-02T15:08:51;18.70;58.00
55634;DHT22;41504;53.162;6.788;2023-07-02T15:11:18;18.70;57.70
55634;DHT22;41504;53.162;6.788;2023-07-02T15:13:46;18.60;58.50
55634;DHT22;41504;53.162;6.788;2023-07-02T15:16:12;18.90;58.70
55634;DHT22;41504;53.162;6.788;2023-07-02T15:18:38;19.20;58.30
55634;DHT22;41504;53.162;6.788;2023-07-02T15:21:07;19.40;57.40
55634;DHT22;41504;53.162;6.788;2023-07-02T15:23:33;19.80;56.10
55634;DHT22;41504;53.162;6.788;2023-07-02T15:26:01;19.90;55.10
55634;DHT22;41504;53.162;6.788;2023-07-02T15:28:28;19.90;53.30
55634;DHT22;41504;53.162;6.788;2023-07-02T15:30:56;19.80;53.90
55634;DHT22;41504;53.162;6.788;2023-07-02T15:33:26;19.70;54.40
55634;DHT22;41504;53.162;6.788;2023-07-02T15:35:52;19.70;53.10